Time;durP1;ratioP1;P1;durP2;ratioP2;P2;SDS_P1;SDS_P2;PMS_P1;PMS_P2;Temp;Humidity;BMP_temperature;BMP_pressure;BME280_temperature;BME280_humidity;BME280_pressure;Samples;Min_cycle;Max_cycle;Signal;HPM_P1;HPM_P2
2023/12/08 00:01:14;;;;;;;26.10;19.00;;;;;;;-2.54;88.02;100477.10;105964;1256;72472;-85
2023/12/08 00:03:41;;;;;;;26.90;18.00;;;;;;;-2.55;88.31;100475.94;106081;1256;59721;-86
2023/12/08 00:06:08;;;;;;;25.40;17.40;;;;;;;-2.57;88.42;100473.75;106775;1256;59836;-84
2023/12/08 00:08:37;;;;;;;25.00;17.80;;;;;;;-2.58;88.51;100472.59;106308;1254;73160;-83
2023/12/08 00:11:04;;;;;;;23.80;17.10;;;;;;;-2.47;88.19;100475.43;106324;1255;68841;-84
2023/12/08 00:13:31;;;;;;;21.30;14.90;;;;;;;-2.38;87.60;100468.23;108713;1255;72807;-83
2023/12/08 00:15:58;;;;;;;20.00;15.70;;;;;;;-2.36;87.82;100469.91;107662;1256;59662;-83
2023/12/08 00:18:25;;;;;;;25.50;17.20;;;;;;;-2.38;88.07;100470.32;106513;1259;60396;-84
2023/12/08 00:20:53;;;;;;;22.30;16.90;;;;;;;-2.42;88.10;100470.14;106314;1256;71640;-84
2023/12/08 00:23:20;;;;;;;24.10;17.00;;;;;;;-2.46;88.19;100467.36;106189;1259;68996;-83
2023/12/08 00:25:47;;;;;;;24.30;16.50;;;;;;;-2.48;88.08;100465.73;105793;1259;72556;-84
2023/12/08 00:28:14;;;;;;;25.40;15.90;;;;;;;-2.39;87.71;100463.43;106076;1254;60859;-83
2023/12/08 00:30:41;;;;;;;20.70;15.90;;;;;;;-2.30;87.19;100464.09;106474;1255;60310;-85
2023/12/08 00:33:09;;;;;;;22.00;16.40;;;;;;;-2.31;87.49;100457.39;108797;1254;71675;-84
2023/12/08 00:35:36;;;;;;;21.10;15.00;;;;;;;-2.32;87.63;100458.46;109176;1255;69143;-85
2023/12/08 00:38:03;;;;;;;23.50;16.50;;;;;;;-2.35;87.66;100459.45;107925;1261;71252;-84
2023/12/08 00:40:30;;;;;;;20.70;16.50;;;;;;;-2.38;87.63;100460.12;107997;1255;59311;-85
2023/12/08 00:42:57;;;;;;;24.90;15.80;;;;;;;-2.39;87.52;100458.58;106373;1259;59621;-85
2023/12/08 00:45:24;;;;;;;19.50;15.50;;;;;;;-2.31;86.92;100454.77;105681;1257;72073;-86
2023/12/08 00:47:51;;;;;;;19.10;15.00;;;;;;;-2.23;86.57;100456.14;105835;1257;70204;-86
2023/12/08 00:50:18;;;;;;;19.50;14.80;;;;;;;-2.24;86.77;100449.92;105800;1260;72605;-85
2023/12/08 00:52:45;;;;;;;21.90;15.30;;;;;;;-2.26;87.25;100446.20;106168;1255;60561;-83
2023/12/08 00:55:12;;;;;;;23.40;16.10;;;;;;;-2.27;87.50;100445.74;105751;1256;60374;-85
2023/12/08 00:57:38;;;;;;;22.20;16.10;;;;;;;-2.29;87.65;100442.70;106412;1259;73189;-81
2023/12/08 01:00:06;;;;;;;25.00;16.90;;;;;;;-2.31;87.56;100438.95;106395;1255;67794;-84
2023/12/08 01:02:34;;;;;;;22.40;15.20;;;;;;;-2.23;86.90;100438.95;107062;1259;72668;-82
2023/12/08 01:05:00;;;;;;;19.90;14.30;;;;;;;-2.17;86.51;100440.57;106871;1258;58626;-82
2023/12/08 01:07:27;;;;;;;21.90;15.60;;;;;;;-2.18;87.03;100441.17;106656;1257;59887;-82
2023/12/08 01:09:55;;;;;;;21.80;16.10;;;;;;;-2.24;86.83;100436.55;107015;1257;73157;-81
2023/12/08 01:12:22;;;;;;;22.50;15.70;;;;;;;-2.29;86.93;100434.20;105855;1256;69224;-83
2023/12/08 01:14:49;;;;;;;23.40;15.70;;;;;;;-2.35;87.04;100430.12;105925;1256;72486;-81
2023/12/08 01:17:16;;;;;;;22.50;16.20;;;;;;;-2.38;86.95;100431.66;105757;1262;59801;-81
2023/12/08 01:19:43;;;;;;;22.80;15.40;;;;;;;-2.31;86.68;100432.23;105764;1256;60128;-82
2023/12/08 01:22:09;;;;;;;22.60;16.10;;;;;;;-2.25;86.32;100433.66;105938;1259;73304;-81
2023/12/08 01:24:36;;;;;;;21.10;15.30;;;;;;;-2.31;86.36;100428.20;106583;1256;70525;-82
2023/12/08 01:27:04;;;;;;;23.60;17.00;;;;;;;-2.37;86.88;100428.14;109129;1259;71341;-81
2023/12/08 01:29:31;;;;;;;24.00;17.00;;;;;;;-2.37;87.47;100423.44;108589;1256;57989;-79
2023/12/08 01:31:58;;;;;;;22.20;17.10;;;;;;;-2.36;87.52;100420.27;108486;1257;59365;-81
2023/12/08 01:34:25;;;;;;;22.40;15.80;;;;;;;-2.34;87.53;100417.61;106387;1260;71856;-80
2023/12/08 01:36:51;;;;;;;17.60;13.30;;;;;;;-2.24;87.06;100415.58;105675;1262;68001;-80
2023/12/08 01:39:18;;;;;;;21.00;14.50;;;;;;;-2.15;86.70;100418.30;105657;1261;72495;-78
2023/12/08 01:41:49;;;;;;;20.30;15.80;;;;;;;-2.19;86.81;100425.92;105666;1256;60747;-80
2023/12/08 01:44:16;;;;;;;22.00;15.50;;;;;;;-2.21;87.13;100422.89;105765;1258;59822;-79
2023/12/08 01:46:43;;;;;;;23.00;16.00;;;;;;;-2.22;87.37;100420.52;106695;1256;71619;-78
2023/12/08 01:49:10;;;;;;;24.50;16.50;;;;;;;-2.25;87.05;100416.65;108712;1257;68923;-79
2023/12/08 01:51:37;;;;;;;21.30;15.60;;;;;;;-2.24;87.16;100419.77;106281;1256;72795;-78
2023/12/08 01:54:04;;;;;;;19.60;14.20;;;;;;;-2.15;86.73;100418.80;106116;1257;60530;-79
2023/12/08 01:56:31;;;;;;;19.40;14.90;;;;;;;-2.09;86.26;100415.77;105904;1258;60449;-79
2023/12/08 01:58:58;;;;;;;19.90;14.90;;;;;;;-2.17;86.00;100416.95;106003;1262;73857;-79
2023/12/08 02:01:25;;;;;;;21.70;15.40;;;;;;;-2.23;86.62;100420.20;106485;1257;69039;-78
2023/12/08 02:03:52;;;;;;;19.30;14.60;;;;;;;-2.29;86.69;100416.48;106720;1256;71102;-78
2023/12/08 02:06:19;;;;;;;21.80;15.00;;;;;;;-2.36;86.68;100419.95;106792;1258;60349;-77
2023/12/08 02:08:49;;;;;;;22.50;15.70;;;;;;;-2.41;87.01;100418.27;106084;1257;60451;-81
2023/12/08 02:11:16;;;;;;;21.20;16.40;;;;;;;-2.32;86.71;100419.73;106276;1257;72311;-82
2023/12/08 02:13:44;;;;;;;20.40;14.70;;;;;;;-2.22;86.46;100420.16;106509;1256;68947;-83
2023/12/08 02:16:16;;;;;;;20.50;15.90;;;;;;;-2.22;86.95;100417.21;107477;1259;72722;-81
2023/12/08 02:18:43;;;;;;;23.30;16.90;;;;;;;-2.23;87.19;100416.24;107844;1255;60361;-83
2023/12/08 02:21:11;;;;;;;22.30;16.80;;;;;;;-2.26;87.19;100416.17;109230;1255;58869;-84
2023/12/08 02:23:42;;;;;;;23.20;17.80;;;;;;;-2.26;87.39;100416.53;108205;1256;72415;-81
2023/12/08 02:26:10;;;;;;;25.40;18.60;;;;;;;-2.24;87.41;100415.95;107386;1256;69075;-81
2023/12/08 02:28:37;;;;;;;22.80;18.40;;;;;;;-2.11;87.14;100415.84;107692;1256;71226;-83
2023/12/08 02:31:04;;;;;;;21.20;16.00;;;;;;;-2.01;86.63;100413.47;107535;1255;60523;-84
2023/12/08 02:33:32;;;;;;;24.60;18.70;;;;;;;-2.00;86.99;100412.53;107518;1256;60187;-83
2023/12/08 02:36:00;;;;;;;19.50;15.70;;;;;;;-1.99;87.18;100418.41;107596;1255;73933;-83
2023/12/08 02:38:27;;;;;;;21.90;15.70;;;;;;;-1.98;87.30;100416.63;107557;1256;70282;-83
2023/12/08 02:40:55;;;;;;;21.10;16.30;;;;;;;-1.96;87.34;100419.02;107375;1256;71407;-82
2023/12/08 02:43:23;;;;;;;17.30;12.90;;;;;;;-1.97;87.13;100417.97;107575;1256;60418;-82
2023/12/08 02:45:50;;;;;;;17.00;12.90;;;;;;;-1.88;86.79;100420.70;108332;1256;60425;-82
2023/12/08 02:48:17;;;;;;;19.00;13.40;;;;;;;-1.81;86.07;100420.52;107278;1256;72634;-83
2023/12/08 02:50:44;;;;;;;21.10;14.00;;;;;;;-1.86;86.10;100419.19;106285;1256;69158;-83
2023/12/08 02:53:11;;;;;;;15.90;12.70;;;;;;;-1.89;86.71;100423.67;107639;1256;70382;-82
2023/12/08 02:55:38;;;;;;;19.70;14.50;;;;;;;-1.89;86.89;100425.95;106580;1259;60445;-83
2023/12/08 02:58:05;;;;;;;22.90;14.80;;;;;;;-1.93;86.77;100422.65;107409;1258;60428;-83
2023/12/08 03:00:31;;;;;;;17.60;12.80;;;;;;;-1.95;86.75;100426.58;107962;1259;72489;-83
2023/12/08 03:02:58;;;;;;;17.50;13.60;;;;;;;-1.86;86.50;100428.23;105972;1256;70196;-81
2023/12/08 03:05:25;;;;;;;16.90;13.00;;;;;;;-1.77;86.23;100426.61;105837;1256;72734;-80
2023/12/08 03:07:52;;;;;;;17.60;13.70;;;;;;;-1.78;86.43;100427.15;105788;1256;60442;-82
2023/12/08 03:10:19;;;;;;;19.30;14.90;;;;;;;-1.82;86.46;100425.80;105736;1256;60510;-84
2023/12/08 03:12:46;;;;;;;19.80;14.90;;;;;;;-1.87;86.47;100430.17;108592;1255;72543;-82
2023/12/08 03:15:12;;;;;;;20.80;15.20;;;;;;;-1.92;86.38;100425.56;109169;1256;68863;-81
2023/12/08 03:17:39;;;;;;;20.40;14.80;;;;;;;-1.94;86.31;100428.10;106949;1257;71172;-82
2023/12/08 03:20:07;;;;;;;16.30;13.00;;;;;;;-1.86;86.01;100425.98;106601;1258;60287;-80
2023/12/08 03:22:33;;;;;;;18.40;14.20;;;;;;;-1.81;85.94;100424.16;108654;1255;60206;-80
2023/12/08 03:25:00;;;;;;;18.60;14.30;;;;;;;-1.82;86.37;100422.14;107389;1259;72428;-80
2023/12/08 03:27:27;;;;;;;15.60;12.30;;;;;;;-1.86;86.27;100415.89;106245;1257;70233;-80
2023/12/08 03:29:54;;;;;;;17.30;12.80;;;;;;;-1.95;86.03;100418.94;105896;1256;71577;-79
2023/12/08 03:32:21;;;;;;;18.30;13.00;;;;;;;-2.05;86.23;100421.83;105646;1257;60555;-82
2023/12/08 03:34:48;;;;;;;16.50;12.30;;;;;;;-2.08;86.21;100419.02;105768;1259;60428;-81
2023/12/08 03:37:15;;;;;;;17.30;11.90;;;;;;;-1.99;85.99;100418.25;105655;1257;72521;-76
2023/12/08 03:39:43;;;;;;;16.90;11.10;;;;;;;-1.98;86.09;100417.33;105819;1257;70154;-78
2023/12/08 03:42:10;;;;;;;17.20;12.20;;;;;;;-2.03;86.34;100419.14;105872;1262;71520;-79
2023/12/08 03:44:36;;;;;;;15.70;11.20;;;;;;;-2.08;86.70;100418.83;105665;1256;60527;-79
2023/12/08 03:47:03;;;;;;;16.10;12.50;;;;;;;-2.14;86.82;100421.52;105886;1257;60546;-80
2023/12/08 03:49:30;;;;;;;15.10;10.30;;;;;;;-2.21;86.81;100418.73;105674;1256;73661;-79
2023/12/08 03:51:57;;;;;;;15.60;11.40;;;;;;;-2.15;86.92;100413.77;105669;1259;67987;-80
2023/12/08 03:54:24;;;;;;;15.90;11.10;;;;;;;-2.04;86.81;100411.70;105649;1259;72716;-79
2023/12/08 03:56:50;;;;;;;14.90;11.20;;;;;;;-2.04;86.89;100408.91;105614;1259;60480;-78
2023/12/08 03:59:17;;;;;;;14.70;11.30;;;;;;;-2.09;87.17;100411.23;105665;1256;60445;-78
2023/12/08 04:01:44;;;;;;;16.70;11.40;;;;;;;-2.11;87.48;100405.81;105683;1259;73670;-79
2023/12/08 04:04:12;;;;;;;18.20;12.00;;;;;;;-2.16;87.42;100403.75;107049;1257;69117;-79
2023/12/08 04:06:56;;;;;;;16.00;11.60;;;;;;;-2.20;87.60;100406.00;109033;1256;70304;-77
2023/12/08 04:09:22;;;;;;;12.90;9.60;;;;;;;-2.08;87.31;100403.40;107978;1259;60372;-79
2023/12/08 04:11:50;;;;;;;13.70;11.00;;;;;;;-1.99;86.91;100404.34;106177;1257;60572;-78
2023/12/08 04:14:17;;;;;;;14.70;10.60;;;;;;;-2.00;87.18;100409.09;106142;1257;71372;-76
2023/12/08 04:16:44;;;;;;;15.30;11.30;;;;;;;-2.04;87.40;100410.86;105586;1256;70313;-78
2023/12/08 04:19:12;;;;;;;16.40;11.70;;;;;;;-2.08;87.60;100414.50;105794;1259;71594;-82
2023/12/08 04:21:39;;;;;;;15.30;10.80;;;;;;;-2.11;87.74;100420.91;106320;1256;60467;-81
2023/12/08 04:24:06;;;;;;;16.20;10.60;;;;;;;-2.14;87.82;100418.41;106079;1256;60485;-79
2023/12/08 04:26:33;;;;;;;14.60;10.90;;;;;;;-2.06;87.24;100422.39;105932;1256;72736;-80
2023/12/08 04:29:00;;;;;;;13.80;10.00;;;;;;;-2.01;87.01;100420.41;105785;1257;69024;-78
2023/12/08 04:31:27;;;;;;;15.40;10.40;;;;;;;-2.04;87.10;100422.84;105845;1256;72675;-80
2023/12/08 04:33:55;;;;;;;13.70;9.80;;;;;;;-2.10;87.52;100421.20;106532;1256;60404;-81
2023/12/08 04:36:22;;;;;;;15.30;10.80;;;;;;;-2.12;87.93;100418.52;107245;1256;60439;-81
2023/12/08 04:38:48;;;;;;;17.00;11.10;;;;;;;-2.16;87.72;100418.69;107460;1256;71461;-80
2023/12/08 04:41:15;;;;;;;15.30;11.50;;;;;;;-2.19;87.64;100419.52;107157;1256;69105;-79
2023/12/08 04:43:42;;;;;;;14.00;10.60;;;;;;;-2.11;87.55;100417.79;106303;1260;71166;-81
2023/12/08 04:46:08;;;;;;;17.20;12.20;;;;;;;-2.00;87.41;100418.98;106612;1257;60447;-80
2023/12/08 04:48:35;;;;;;;16.70;11.30;;;;;;;-1.97;87.55;100416.61;106333;1262;60313;-79
2023/12/08 04:51:03;;;;;;;18.60;13.00;;;;;;;-2.01;87.65;100415.88;105983;1262;72371;-81
2023/12/08 04:53:30;;;;;;;21.00;13.70;;;;;;;-2.04;87.65;100417.95;106501;1256;70217;-82
2023/12/08 04:55:57;;;;;;;17.70;12.80;;;;;;;-2.08;87.73;100414.16;108481;1255;73479;-82
2023/12/08 04:58:24;;;;;;;15.00;10.40;;;;;;;-2.12;87.67;100416.94;108967;1256;59664;-78
2023/12/08 05:00:51;;;;;;;15.50;10.80;;;;;;;-2.05;87.29;100412.81;109127;1255;58751;-78
2023/12/08 05:03:18;;;;;;;16.70;11.50;;;;;;;-1.99;87.18;100413.03;109014;1256;73279;-81
2023/12/08 05:05:45;;;;;;;13.90;10.10;;;;;;;-1.99;87.42;100411.45;108213;1256;68860;-79
2023/12/08 05:08:12;;;;;;;15.00;11.10;;;;;;;-2.04;87.56;100410.84;107920;1260;71364;-83
2023/12/08 05:10:39;;;;;;;15.10;10.40;;;;;;;-2.09;87.49;100413.16;108132;1255;59837;-84
2023/12/08 05:13:06;;;;;;;17.80;11.50;;;;;;;-2.13;87.74;100416.30;108473;1256;60040;-83
2023/12/08 05:15:33;;;;;;;14.70;10.60;;;;;;;-2.05;87.46;100413.86;107772;1257;72640;-83
2023/12/08 05:17:59;;;;;;;16.90;10.70;;;;;;;-1.97;87.21;100412.77;106747;1260;70588;-82
2023/12/08 05:20:26;;;;;;;14.80;10.00;;;;;;;-1.97;87.15;100411.05;106270;1262;73946;-83
2023/12/08 05:22:53;;;;;;;16.80;10.40;;;;;;;-2.01;87.44;100413.83;106272;1259;60341;-80
2023/12/08 05:25:20;;;;;;;17.00;11.00;;;;;;;-2.05;87.60;100413.15;105949;1263;60926;-80
2023/12/08 05:27:47;;;;;;;16.50;11.60;;;;;;;-2.09;87.79;100413.35;106043;1259;73659;-77
2023/12/08 05:30:15;;;;;;;17.20;11.70;;;;;;;-2.13;88.01;100418.36;105598;1261;70142;-80
2023/12/08 05:32:42;;;;;;;16.40;9.50;;;;;;;-2.04;87.76;100414.86;105788;1257;71241;-77
2023/12/08 05:35:08;;;;;;;16.30;10.40;;;;;;;-1.94;87.45;100415.61;105618;1259;60475;-76
2023/12/08 05:37:35;;;;;;;14.40;9.80;;;;;;;-1.97;87.46;100417.45;106156;1256;60513;-77
2023/12/08 05:40:03;;;;;;;16.00;10.90;;;;;;;-2.01;87.78;100409.64;105911;1259;73715;-80
2023/12/08 05:42:30;;;;;;;16.30;10.80;;;;;;;-2.03;87.94;100408.90;105685;1261;70369;-78
2023/12/08 05:44:57;;;;;;;13.60;9.90;;;;;;;-2.10;87.68;100409.91;105834;1257;70944;-80
2023/12/08 05:47:23;;;;;;;12.10;9.70;;;;;;;-2.06;87.49;100406.96;106174;1257;61120;-78
2023/12/08 05:49:51;;;;;;;14.60;9.20;;;;;;;-2.01;87.20;100406.38;106331;1257;60752;-78
2023/12/08 05:52:17;;;;;;;12.60;8.80;;;;;;;-2.06;87.31;100407.27;108058;1256;74265;-79
2023/12/08 05:54:44;;;;;;;13.00;9.10;;;;;;;-2.12;87.46;100409.86;109044;1256;69036;-80
2023/12/08 05:57:11;;;;;;;13.30;9.80;;;;;;;-2.17;87.77;100407.10;106991;1259;71217;-80
2023/12/08 05:59:38;;;;;;;12.10;8.90;;;;;;;-2.20;87.86;100410.00;105901;1262;60398;-80
2023/12/08 06:02:04;;;;;;;10.60;8.20;;;;;;;-2.15;87.58;100414.13;105867;1258;60422;-79
2023/12/08 06:04:31;;;;;;;11.80;7.60;;;;;;;-2.08;87.31;100418.64;106135;1257;74017;-80
2023/12/08 06:06:58;;;;;;;11.00;8.40;;;;;;;-2.10;87.52;100423.80;107137;1256;69004;-78
2023/12/08 06:09:25;;;;;;;11.80;8.70;;;;;;;-2.15;87.70;100426.98;107081;1259;71158;-78
2023/12/08 06:11:52;;;;;;;13.80;8.90;;;;;;;-2.19;87.89;100427.66;106374;1256;60637;-80
2023/12/08 06:14:18;;;;;;;10.70;7.90;;;;;;;-2.24;87.80;100425.44;106807;1257;60355;-80
2023/12/08 06:16:45;;;;;;;12.10;8.50;;;;;;;-2.27;87.83;100423.02;106513;1256;71449;-81
2023/12/08 06:19:12;;;;;;;10.10;7.30;;;;;;;-2.20;87.56;100425.98;107095;1259;69348;-82
2023/12/08 06:21:39;;;;;;;10.70;8.10;;;;;;;-2.12;87.08;100425.95;106842;1259;71089;-80
2023/12/08 06:24:05;;;;;;;12.00;8.90;;;;;;;-2.14;87.10;100431.25;106494;1259;60545;-79
2023/12/08 06:26:32;;;;;;;15.90;9.60;;;;;;;-2.21;87.50;100430.86;106413;1260;60565;-75
2023/12/08 06:28:59;;;;;;;12.70;8.50;;;;;;;-2.25;87.77;100431.26;106939;1257;73932;-80
2023/12/08 06:31:26;;;;;;;11.60;8.90;;;;;;;-2.27;87.99;100431.84;107903;1257;69284;-78
2023/12/08 06:33:52;;;;;;;12.90;8.30;;;;;;;-2.26;87.99;100433.20;107334;1256;71480;-78
2023/12/08 06:36:46;;;;;;;13.40;8.20;;;;;;;-2.12;87.71;100435.84;107053;1259;61032;-79
2023/12/08 06:39:15;;;;;;;10.70;8.20;;;;;;;-2.01;87.36;100431.71;106355;1261;60352;-77
2023/12/08 06:41:42;;;;;;;12.10;8.20;;;;;;;-2.03;87.29;100427.80;106179;1259;73709;-78
2023/12/08 06:44:09;;;;;;;11.50;8.40;;;;;;;-2.08;87.65;100429.92;106207;1257;70300;-76
2023/12/08 06:46:37;;;;;;;14.50;9.10;;;;;;;-2.12;87.63;100428.39;108417;1257;70353;-76
2023/12/08 06:49:03;;;;;;;10.90;7.90;;;;;;;-2.13;88.03;100430.04;108281;1257;60325;-77
2023/12/08 06:51:33;;;;;;;14.20;9.10;;;;;;;-2.08;87.67;100429.58;106768;1260;60537;-79
2023/12/08 06:54:00;;;;;;;11.30;8.10;;;;;;;-1.97;87.08;100422.87;106679;1256;74120;-77
2023/12/08 06:56:28;;;;;;;12.70;8.40;;;;;;;-1.97;87.30;100422.12;106539;1257;70187;-78
2023/12/08 06:58:55;;;;;;;12.50;9.20;;;;;;;-2.00;87.62;100421.41;106187;1259;71289;-78
2023/12/08 07:01:22;;;;;;;12.60;9.00;;;;;;;-2.04;87.53;100424.19;106180;1262;60450;-78
2023/12/08 07:03:49;;;;;;;13.50;9.20;;;;;;;-2.06;87.68;100427.58;106190;1260;60572;-76
2023/12/08 07:06:17;;;;;;;12.70;8.60;;;;;;;-2.06;87.72;100424.48;106063;1259;73905;-77
2023/12/08 07:08:44;;;;;;;12.20;8.70;;;;;;;-1.96;87.41;100422.62;106394;1260;70344;-79
2023/12/08 07:11:11;;;;;;;12.00;8.90;;;;;;;-1.83;87.11;100421.63;106398;1260;72417;-80
2023/12/08 07:13:37;;;;;;;10.40;7.70;;;;;;;-1.78;87.16;100421.09;106244;1257;60694;-80
2023/12/08 07:16:05;;;;;;;13.00;8.80;;;;;;;-1.79;87.31;100421.98;106342;1259;60435;-79
2023/12/08 07:18:32;;;;;;;13.40;9.60;;;;;;;-1.80;87.58;100420.66;106193;1256;72574;-79
2023/12/08 07:20:59;;;;;;;12.70;9.50;;;;;;;-1.80;87.55;100422.39;105937;1260;70377;-76
2023/12/08 07:23:26;;;;;;;13.80;9.30;;;;;;;-1.77;87.52;100422.98;106173;1262;72594;-78
2023/12/08 07:25:52;;;;;;;12.90;9.00;;;;;;;-1.67;86.97;100420.07;106523;1259;60436;-79
2023/12/08 07:28:19;;;;;;;14.30;9.10;;;;;;;-1.56;86.65;100421.64;106416;1259;60345;-78
2023/12/08 07:30:46;;;;;;;13.00;9.90;;;;;;;-1.56;86.49;100421.10;106325;1259;72459;-79
2023/12/08 07:33:13;;;;;;;14.00;9.50;;;;;;;-1.60;86.58;100419.52;106199;1260;68788;-76
2023/12/08 07:35:40;;;;;;;15.10;10.50;;;;;;;-1.60;86.92;100422.66;106115;1262;72732;-81
2023/12/08 07:38:06;;;;;;;15.90;11.20;;;;;;;-1.59;87.08;100423.29;106427;1257;60446;-79
2023/12/08 07:40:34;;;;;;;15.40;10.20;;;;;;;-1.58;87.06;100422.40;108476;1262;60446;-82
2023/12/08 07:43:01;;;;;;;15.30;9.60;;;;;;;-1.47;86.76;100423.76;108623;1259;72626;-80
2023/12/08 07:45:28;;;;;;;13.10;9.70;;;;;;;-1.33;86.12;100417.03;107014;1258;70313;-80
2023/12/08 07:47:55;;;;;;;12.20;9.40;;;;;;;-1.31;85.77;100415.89;107039;1258;72690;-81
2023/12/08 07:50:22;;;;;;;13.80;9.00;;;;;;;-1.37;85.83;100415.80;106831;1257;60331;-79
2023/12/08 07:52:51;;;;;;;13.10;9.50;;;;;;;-1.39;86.05;100416.08;106943;1256;59257;-81
2023/12/08 07:55:18;;;;;;;11.70;9.10;;;;;;;-1.41;86.03;100412.52;106663;1259;72677;-80
2023/12/08 07:57:46;;;;;;;12.60;8.80;;;;;;;-1.41;85.92;100413.40;106567;1257;70179;-80
2023/12/08 08:00:13;;;;;;;12.10;8.50;;;;;;;-1.32;85.62;100411.91;106577;1260;72698;-78
2023/12/08 08:02:40;;;;;;;12.10;8.10;;;;;;;-1.23;85.06;100413.54;106846;1257;60340;-78
2023/12/08 08:05:07;;;;;;;12.20;8.70;;;;;;;-1.28;84.94;100410.48;107314;1257;60385;-78
2023/12/08 08:07:35;;;;;;;11.20;8.80;;;;;;;-1.35;85.05;100408.08;106669;1260;73848;-78
2023/12/08 08:10:02;;;;;;;12.60;9.00;;;;;;;-1.42;85.27;100403.54;105993;1259;70361;-78
2023/12/08 08:12:32;;;;;;;12.10;8.50;;;;;;;-1.46;85.15;100403.92;105920;1260;71537;-78
2023/12/08 08:14:58;;;;;;;12.60;8.50;;;;;;;-1.39;85.23;100403.20;106343;1257;60418;-79
2023/12/08 08:17:26;;;;;;;12.90;9.50;;;;;;;-1.27;85.03;100397.93;106287;1256;60387;-80
2023/12/08 08:19:54;;;;;;;11.30;8.60;;;;;;;-1.27;85.05;100396.70;106795;1262;73233;-81
2023/12/08 08:22:20;;;;;;;12.60;8.90;;;;;;;-1.28;85.07;100392.45;106881;1258;70577;-77
2023/12/08 08:24:59;;;;;;;13.70;10.00;;;;;;;-1.31;84.94;100391.52;106091;1258;71396;-78
2023/12/08 08:27:26;;;;;;;16.10;9.80;;;;;;;-1.34;84.93;100387.88;106127;1262;60558;-79
2023/12/08 08:29:54;;;;;;;11.60;8.40;;;;;;;-1.29;84.45;100389.71;105726;1262;60447;-79
2023/12/08 08:32:21;;;;;;;14.20;9.10;;;;;;;-1.20;83.90;100388.05;107202;1256;74034;-80
2023/12/08 08:34:53;;;;;;;13.30;9.80;;;;;;;-1.23;83.98;100386.60;109151;1258;68812;-81
2023/12/08 08:37:30;;;;;;;12.20;9.50;;;;;;;-1.25;84.33;100385.70;107624;1257;71422;-80
2023/12/08 08:39:57;;;;;;;18.00;10.40;;;;;;;-1.23;84.28;100388.19;106541;1257;60921;-79
2023/12/08 08:42:25;;;;;;;14.40;10.10;;;;;;;-1.20;84.78;100385.44;107457;1257;60373;-81
2023/12/08 08:44:52;;;;;;;14.30;10.50;;;;;;;-1.17;84.52;100385.96;107471;1257;72679;-79
2023/12/08 08:47:19;;;;;;;14.10;8.80;;;;;;;-1.05;84.17;100382.90;107759;1256;69127;-80
2023/12/08 08:49:47;;;;;;;12.40;9.80;;;;;;;-0.86;83.62;100387.35;107299;1260;73114;-82
2023/12/08 08:52:14;;;;;;;13.90;9.00;;;;;;;-0.87;83.33;100388.10;107232;1258;60565;-80
2023/12/08 08:54:41;;;;;;;13.90;10.20;;;;;;;-0.95;83.18;100389.89;107144;1257;60521;-79
2023/12/08 08:57:08;;;;;;;15.80;10.90;;;;;;;-1.00;83.34;100391.04;106700;1257;73010;-80
2023/12/08 08:59:35;;;;;;;16.20;10.10;;;;;;;-1.06;83.37;100387.15;106342;1261;68154;-79
2023/12/08 09:02:01;;;;;;;17.00;11.40;;;;;;;-1.07;83.03;100384.39;105832;1263;72605;-78
2023/12/08 09:04:31;;;;;;;17.10;10.70;;;;;;;-1.01;82.80;100385.33;105876;1257;60949;-78
2023/12/08 09:06:58;;;;;;;18.10;11.70;;;;;;;-1.02;82.82;100381.73;106051;1257;60479;-79
2023/12/08 09:09:25;;;;;;;15.40;11.20;;;;;;;-1.06;82.94;100382.13;106167;1259;73904;-77
2023/12/08 09:11:55;;;;;;;16.50;10.90;;;;;;;-1.11;83.13;100379.91;105935;1260;70456;-77
2023/12/08 09:14:21;;;;;;;18.20;12.00;;;;;;;-1.14;83.22;100375.55;105829;1261;62342;-77
2023/12/08 09:16:48;;;;;;;16.00;10.40;;;;;;;-1.15;83.47;100369.36;105672;1257;60525;-76
2023/12/08 09:19:15;;;;;;;17.20;9.80;;;;;;;-1.07;83.04;100366.84;105861;1264;60439;-77
2023/12/08 09:21:42;;;;;;;16.80;11.50;;;;;;;-0.95;83.07;100367.80;105822;1260;72803;-78
2023/12/08 09:24:21;;;;;;;15.40;11.40;;;;;;;-0.91;83.27;100367.45;105960;1260;70278;-78
2023/12/08 09:26:48;;;;;;;16.30;10.90;;;;;;;-0.90;83.45;100365.32;107802;1257;72859;-77
2023/12/08 09:29:14;;;;;;;18.20;11.00;;;;;;;-0.87;83.57;100367.42;108239;1257;59314;-77
2023/12/08 09:31:41;;;;;;;13.80;10.30;;;;;;;-0.84;83.43;100363.06;106324;1259;60570;-77
2023/12/08 09:34:08;;;;;;;18.10;10.80;;;;;;;-0.81;83.17;100361.01;106069;1257;72665;-79
2023/12/08 09:36:36;;;;;;;17.20;10.80;;;;;;;-0.78;82.84;100362.61;105967;1258;70445;-78
2023/12/08 09:39:04;;;;;;;16.90;10.20;;;;;;;-0.68;82.19;100359.44;106350;1257;72826;-78
2023/12/08 09:41:31;;;;;;;15.40;11.30;;;;;;;-0.66;82.07;100356.23;107413;1257;60462;-78
2023/12/08 09:44:12;;;;;;;19.90;11.80;;;;;;;-0.70;82.36;100357.98;106279;1260;60543;-80
2023/12/08 09:46:43;;;;;;;15.50;11.80;;;;;;;-0.70;82.64;100355.55;106738;1257;72456;-79
2023/12/08 09:49:41;;;;;;;15.10;10.80;;;;;;;-0.71;82.65;100358.36;107264;1259;68070;-80
2023/12/08 09:52:08;;;;;;;20.70;12.80;;;;;;;-0.72;82.53;100353.89;107057;1260;71346;-82
2023/12/08 09:54:35;;;;;;;14.90;11.50;;;;;;;-0.71;82.24;100355.94;106609;1258;60423;-81
2023/12/08 09:57:03;;;;;;;16.30;11.20;;;;;;;-0.55;82.26;100354.58;106134;1264;60429;-82
2023/12/08 09:59:30;;;;;;;13.80;10.00;;;;;;;-0.46;81.92;100353.55;105989;1262;242556;-83
2023/12/08 10:03:51;;;;;;;20.30;13.50;;;;;;;-0.43;81.88;100349.79;103355;1289;600244;-83
2023/12/08 10:06:19;;;;;;;17.50;11.50;;;;;;;-0.42;82.33;100344.30;105300;1267;59349;-77
2023/12/08 10:08:46;;;;;;;19.30;12.40;;;;;;;-0.39;81.72;100336.86;105400;1264;59298;-83
2023/12/08 10:11:15;;;;;;;17.50;12.80;;;;;;;-0.35;81.26;100336.98;105459;1267;73296;-82
2023/12/08 10:13:42;;;;;;;19.50;13.80;;;;;;;-0.27;80.89;100339.13;105838;1272;70985;-82
2023/12/08 10:16:10;;;;;;;17.60;11.50;;;;;;;-0.28;81.11;100342.50;105613;1264;71420;-79
2023/12/08 10:18:38;;;;;;;17.60;13.00;;;;;;;-0.33;80.92;100347.14;106101;1264;201288;-81
2023/12/08 10:21:19;;;;;;;16.10;12.40;;;;;;;-0.42;81.13;100348.30;108807;1261;58720;-81
2023/12/08 10:23:47;;;;;;;16.80;10.90;;;;;;;-0.47;81.34;100351.70;108965;1254;71292;-82
2023/12/08 10:26:16;;;;;;;15.90;10.90;;;;;;;-0.48;81.34;100345.85;106971;1254;71112;-80
2023/12/08 10:28:44;;;;;;;14.10;10.20;;;;;;;-0.38;81.23;100346.56;107070;1254;73003;-84
2023/12/08 10:31:12;;;;;;;16.70;10.20;;;;;;;-0.28;80.86;100343.87;106460;1260;60455;-83
2023/12/08 10:33:41;;;;;;;13.50;9.60;;;;;;;-0.30;80.67;100342.45;106513;1254;59522;-83
2023/12/08 10:36:09;;;;;;;18.90;13.00;;;;;;;-0.35;80.83;100343.79;106605;1259;73352;-83
2023/12/08 10:38:37;;;;;;;19.70;12.20;;;;;;;-0.41;80.70;100347.39;106287;1255;68941;-83
2023/12/08 10:41:05;;;;;;;15.50;11.20;;;;;;;-0.47;81.05;100348.92;106195;1254;72823;-82
2023/12/08 10:43:32;;;;;;;20.40;10.80;;;;;;;-0.51;80.79;100345.50;106228;1254;60858;-85
2023/12/08 10:46:00;;;;;;;12.90;9.90;;;;;;;-0.45;80.68;100345.54;106599;1254;60002;-85
2023/12/08 10:48:27;;;;;;;12.90;9.70;;;;;;;-0.37;80.32;100341.82;106390;1259;75634;-85
2023/12/08 10:50:56;;;;;;;15.40;10.10;;;;;;;-0.42;80.72;100345.36;106667;1254;70442;-83
2023/12/08 10:53:25;;;;;;;17.30;11.60;;;;;;;-0.45;81.06;100346.23;106323;1256;71656;-82
2023/12/08 10:56:06;;;;;;;15.30;11.70;;;;;;;-0.46;81.11;100345.42;106079;1260;59676;-82
2023/12/08 10:58:39;;;;;;;15.90;9.90;;;;;;;-0.48;81.11;100348.67;106199;1254;59746;-79
2023/12/08 11:01:12;;;;;;;14.30;10.30;;;;;;;-0.53;80.79;100346.12;105919;1254;73114;-79
2023/12/08 11:03:44;;;;;;;15.90;10.90;;;;;;;-0.48;80.58;100348.49;105859;1262;67764;-80
2023/12/08 11:06:33;;;;;;;15.30;11.00;;;;;;;-0.40;80.53;100347.49;106036;1257;71386;-81
2023/12/08 11:09:02;;;;;;;16.30;11.30;;;;;;;-0.43;80.82;100345.23;106237;1260;60175;-82